sensor_id;sensor_type;location;lat;lon;timestamp;P1;durP1;ratioP1;P2;durP2;ratioP2
64738;SDS011;51175;51.186;0.276;2023-03-01T00:00:27;5.90;;;4.97;;
64738;SDS011;51175;51.186;0.276;2023-03-01T00:01:17;6.25;;;5.13;;
64738;SDS011;51175;51.186;0.276;2023-03-01T00:01:52;6.07;;;5.47;;
64738;SDS011;51175;51.186;0.276;2023-03-01T00:02:22;7.60;;;5.70;;
64738;SDS011;51175;51.186;0.276;2023-03-01T00:02:52;5.85;;;5.25;;
64738;SDS011;51175;51.186;0.276;2023-03-01T00:03:23;6.38;;;5.15;;
64738;SDS011;51175;51.186;0.276;2023-03-01T00:03:54;6.35;;;5.38;;
64738;SDS011;51175;51.186;0.276;2023-03-01T00:04:25;7.68;;;5.10;;
64738;SDS011;51175;51.186;0.276;2023-03-01T00:04:55;7.13;;;5.28;;
64738;SDS011;51175;51.186;0.276;2023-03-01T00:05:26;7.00;;;5.40;;
64738;SDS011;51175;51.186;0.276;2023-03-01T00:05:56;7.50;;;5.47;;
64738;SDS011;51175;51.186;0.276;2023-03-01T00:06:27;7.60;;;6.32;;
64738;SDS011;51175;51.186;0.276;2023-03-01T00:06:57;5.50;;;5.00;;
64738;SDS011;51175;51.186;0.276;2023-03-01T00:07:28;5.53;;;4.93;;
64738;SDS011;51175;51.186;0.276;2023-03-01T00:07:58;6.80;;;5.15;;
64738;SDS011;51175;51.186;0.276;2023-03-01T00:08:28;6.97;;;5.90;;
64738;SDS011;51175;51.186;0.276;2023-03-01T00:09:00;5.90;;;5.13;;
64738;SDS011;51175;51.186;0.276;2023-03-01T00:09:30;6.70;;;5.57;;
64738;SDS011;51175;51.186;0.276;2023-03-01T00:10:00;7.55;;;6.10;;
64738;SDS011;51175;51.186;0.276;2023-03-01T00:10:31;5.95;;;5.35;;
64738;SDS011;51175;51.186;0.276;2023-03-01T00:11:15;6.63;;;5.90;;
64738;SDS011;51175;51.186;0.276;2023-03-01T00:11:50;7.05;;;5.30;;
64738;SDS011;51175;51.186;0.276;2023-03-01T00:12:20;6.18;;;5.47;;
64738;SDS011;51175;51.186;0.276;2023-03-01T00:12:50;6.25;;;5.65;;
64738;SDS011;51175;51.186;0.276;2023-03-01T00:13:21;9.18;;;6.00;;
64738;SDS011;51175;51.186;0.276;2023-03-01T00:13:52;7.63;;;5.85;;
64738;SDS011;51175;51.186;0.276;2023-03-01T00:14:25;6.32;;;5.00;;
64738;SDS011;51175;51.186;0.276;2023-03-01T00:14:55;6.43;;;5.55;;
64738;SDS011;51175;51.186;0.276;2023-03-01T00:15:26;5.45;;;4.95;;
64738;SDS011;51175;51.186;0.276;2023-03-01T00:15:56;7.55;;;5.95;;
64738;SDS011;51175;51.186;0.276;2023-03-01T00:16:31;6.13;;;5.47;;
64738;SDS011;51175;51.186;0.276;2023-03-01T00:17:05;6.88;;;5.90;;
64738;SDS011;51175;51.186;0.276;2023-03-01T00:17:35;7.03;;;5.38;;
64738;SDS011;51175;51.186;0.276;2023-03-01T00:18:06;6.28;;;5.65;;
64738;SDS011;51175;51.186;0.276;2023-03-01T00:18:36;6.95;;;6.00;;
64738;SDS011;51175;51.186;0.276;2023-03-01T00:19:07;7.07;;;6.05;;
64738;SDS011;51175;51.186;0.276;2023-03-01T00:19:42;6.93;;;5.97;;
64738;SDS011;51175;51.186;0.276;2023-03-01T00:20:12;7.40;;;5.57;;
64738;SDS011;51175;51.186;0.276;2023-03-01T00:20:48;5.85;;;5.15;;
64738;SDS011;51175;51.186;0.276;2023-03-01T00:21:23;6.20;;;5.60;;
64738;SDS011;51175;51.186;0.276;2023-03-01T00:21:54;6.28;;;5.47;;
64738;SDS011;51175;51.186;0.276;2023-03-01T00:22:26;6.45;;;5.57;;
64738;SDS011;51175;51.186;0.276;2023-03-01T00:22:58;8.07;;;5.40;;
64738;SDS011;51175;51.186;0.276;2023-03-01T00:23:28;6.68;;;5.50;;
64738;SDS011;51175;51.186;0.276;2023-03-01T00:23:59;7.32;;;6.18;;
64738;SDS011;51175;51.186;0.276;2023-03-01T00:24:31;6.57;;;5.88;;
64738;SDS011;51175;51.186;0.276;2023-03-01T00:25:01;7.38;;;6.22;;
64738;SDS011;51175;51.186;0.276;2023-03-01T00:25:31;6.70;;;6.00;;
64738;SDS011;51175;51.186;0.276;2023-03-01T00:26:05;7.00;;;5.97;;
64738;SDS011;51175;51.186;0.276;2023-03-01T00:26:37;6.47;;;5.78;;
64738;SDS011;51175;51.186;0.276;2023-03-01T00:27:08;7.90;;;5.68;;
64738;SDS011;51175;51.186;0.276;2023-03-01T00:27:38;6.35;;;5.75;;
64738;SDS011;51175;51.186;0.276;2023-03-01T00:28:08;6.22;;;5.63;;
64738;SDS011;51175;51.186;0.276;2023-03-01T00:28:39;6.43;;;5.80;;
64738;SDS011;51175;51.186;0.276;2023-03-01T00:29:09;8.30;;;6.13;;
64738;SDS011;51175;51.186;0.276;2023-03-01T00:29:39;7.00;;;6.30;;
64738;SDS011;51175;51.186;0.276;2023-03-01T00:30:10;7.30;;;5.93;;
64738;SDS011;51175;51.186;0.276;2023-03-01T00:30:41;6.90;;;6.20;;
64738;SDS011;51175;51.186;0.276;2023-03-01T00:31:12;7.25;;;6.50;;
64738;SDS011;51175;51.186;0.276;2023-03-01T00:31:44;6.35;;;5.70;;
64738;SDS011;51175;51.186;0.276;2023-03-01T00:32:15;7.82;;;6.50;;
64738;SDS011;51175;51.186;0.276;2023-03-01T00:32:45;7.22;;;6.45;;
64738;SDS011;51175;51.186;0.276;2023-03-01T00:33:15;6.30;;;5.68;;
64738;SDS011;51175;51.186;0.276;2023-03-01T00:33:46;7.38;;;6.15;;
64738;SDS011;51175;51.186;0.276;2023-03-01T00:34:17;8.75;;;6.22;;
64738;SDS011;51175;51.186;0.276;2023-03-01T00:34:47;9.43;;;6.55;;
64738;SDS011;51175;51.186;0.276;2023-03-01T00:35:24;7.47;;;5.85;;
64738;SDS011;51175;51.186;0.276;2023-03-01T00:35:54;6.82;;;6.13;;
64738;SDS011;51175;51.186;0.276;2023-03-01T00:36:25;7.25;;;6.35;;
64738;SDS011;51175;51.186;0.276;2023-03-01T00:36:57;7.43;;;6.53;;
64738;SDS011;51175;51.186;0.276;2023-03-01T00:37:34;6.78;;;6.07;;
64738;SDS011;51175;51.186;0.276;2023-03-01T00:38:05;8.70;;;6.68;;
64738;SDS011;51175;51.186;0.276;2023-03-01T00:38:36;7.13;;;6.07;;
64738;SDS011;51175;51.186;0.276;2023-03-01T00:39:09;7.10;;;6.40;;
64738;SDS011;51175;51.186;0.276;2023-03-01T00:39:42;7.65;;;6.88;;
64738;SDS011;51175;51.186;0.276;2023-03-01T00:40:13;9.50;;;6.50;;
64738;SDS011;51175;51.186;0.276;2023-03-01T00:40:46;7.45;;;6.75;;
64738;SDS011;51175;51.186;0.276;2023-03-01T00:41:17;7.53;;;6.68;;
64738;SDS011;51175;51.186;0.276;2023-03-01T00:41:49;7.80;;;6.38;;
64738;SDS011;51175;51.186;0.276;2023-03-01T00:42:19;7.22;;;6.28;;
64738;SDS011;51175;51.186;0.276;2023-03-01T00:42:50;7.70;;;5.88;;
64738;SDS011;51175;51.186;0.276;2023-03-01T00:43:20;8.20;;;6.40;;
64738;SDS011;51175;51.186;0.276;2023-03-01T00:43:50;6.97;;;6.28;;
64738;SDS011;51175;51.186;0.276;2023-03-01T00:44:21;7.43;;;6.72;;
64738;SDS011;51175;51.186;0.276;2023-03-01T00:44:51;5.85;;;5.25;;
64738;SDS011;51175;51.186;0.276;2023-03-01T00:45:22;7.88;;;6.53;;
64738;SDS011;51175;51.186;0.276;2023-03-01T00:45:52;8.38;;;6.85;;
64738;SDS011;51175;51.186;0.276;2023-03-01T00:46:24;6.40;;;5.80;;
64738;SDS011;51175;51.186;0.276;2023-03-01T00:46:56;7.70;;;6.25;;
64738;SDS011;51175;51.186;0.276;2023-03-01T00:47:28;6.80;;;6.10;;
64738;SDS011;51175;51.186;0.276;2023-03-01T00:47:59;7.95;;;7.15;;
64738;SDS011;51175;51.186;0.276;2023-03-01T00:48:29;7.05;;;6.25;;
64738;SDS011;51175;51.186;0.276;2023-03-01T00:49:00;7.63;;;6.55;;
64738;SDS011;51175;51.186;0.276;2023-03-01T00:49:32;7.45;;;6.65;;
64738;SDS011;51175;51.186;0.276;2023-03-01T00:50:02;8.52;;;6.07;;
64738;SDS011;51175;51.186;0.276;2023-03-01T00:50:33;7.75;;;6.38;;
64738;SDS011;51175;51.186;0.276;2023-03-01T00:51:04;8.98;;;6.72;;
64738;SDS011;51175;51.186;0.276;2023-03-01T00:51:38;9.88;;;7.13;;
64738;SDS011;51175;51.186;0.276;2023-03-01T00:52:11;7.22;;;6.43;;
64738;SDS011;51175;51.186;0.276;2023-03-01T00:52:41;7.40;;;6.50;;
64738;SDS011;51175;51.186;0.276;2023-03-01T00:53:11;7.53;;;6.82;;
64738;SDS011;51175;51.186;0.276;2023-03-01T00:53:42;8.20;;;6.10;;
64738;SDS011;51175;51.186;0.276;2023-03-01T00:54:13;9.10;;;7.10;;
64738;SDS011;51175;51.186;0.276;2023-03-01T00:54:43;7.95;;;7.13;;
64738;SDS011;51175;51.186;0.276;2023-03-01T00:55:13;8.02;;;7.22;;
64738;SDS011;51175;51.186;0.276;2023-03-01T00:55:44;7.90;;;7.13;;
64738;SDS011;51175;51.186;0.276;2023-03-01T00:56:14;8.57;;;6.82;;
64738;SDS011;51175;51.186;0.276;2023-03-01T00:56:45;7.75;;;6.53;;
64738;SDS011;51175;51.186;0.276;2023-03-01T00:57:15;8.20;;;7.40;;
64738;SDS011;51175;51.186;0.276;2023-03-01T00:57:45;7.20;;;6.38;;
64738;SDS011;51175;51.186;0.276;2023-03-01T00:58:16;7.78;;;6.80;;
64738;SDS011;51175;51.186;0.276;2023-03-01T00:58:46;7.88;;;7.10;;
64738;SDS011;51175;51.186;0.276;2023-03-01T00:59:17;8.30;;;7.03;;
64738;SDS011;51175;51.186;0.276;2023-03-01T00:59:47;8.80;;;7.88;;
64738;SDS011;51175;51.186;0.276;2023-03-01T01:00:18;7.95;;;6.75;;
64738;SDS011;51175;51.186;0.276;2023-03-01T01:00:49;8.52;;;7.38;;
64738;SDS011;51175;51.186;0.276;2023-03-01T01:01:24;9.32;;;6.95;;
64738;SDS011;51175;51.186;0.276;2023-03-01T01:01:57;8.27;;;7.03;;
64738;SDS011;51175;51.186;0.276;2023-03-01T01:02:29;7.15;;;6.45;;
64738;SDS011;51175;51.186;0.276;2023-03-01T01:02:59;8.65;;;6.97;;
64738;SDS011;51175;51.186;0.276;2023-03-01T01:03:29;7.75;;;6.55;;
64738;SDS011;51175;51.186;0.276;2023-03-01T01:04:05;8.57;;;7.13;;
64738;SDS011;51175;51.186;0.276;2023-03-01T01:04:37;7.72;;;6.88;;
64738;SDS011;51175;51.186;0.276;2023-03-01T01:05:07;8.27;;;7.38;;
64738;SDS011;51175;51.186;0.276;2023-03-01T01:05:38;7.70;;;6.90;;
64738;SDS011;51175;51.186;0.276;2023-03-01T01:06:12;7.47;;;6.65;;
64738;SDS011;51175;51.186;0.276;2023-03-01T01:06:44;10.27;;;7.32;;
64738;SDS011;51175;51.186;0.276;2023-03-01T01:07:16;8.07;;;7.28;;
64738;SDS011;51175;51.186;0.276;2023-03-01T01:07:47;8.07;;;7.28;;
64738;SDS011;51175;51.186;0.276;2023-03-01T01:08:18;8.00;;;7.20;;
64738;SDS011;51175;51.186;0.276;2023-03-01T01:08:50;7.97;;;7.00;;
64738;SDS011;51175;51.186;0.276;2023-03-01T01:09:21;9.43;;;7.22;;
64738;SDS011;51175;51.186;0.276;2023-03-01T01:09:52;8.48;;;6.78;;
64738;SDS011;51175;51.186;0.276;2023-03-01T01:10:22;8.18;;;7.38;;
64738;SDS011;51175;51.186;0.276;2023-03-01T01:10:52;9.55;;;7.57;;
64738;SDS011;51175;51.186;0.276;2023-03-01T01:11:24;8.02;;;7.22;;
64738;SDS011;51175;51.186;0.276;2023-03-01T01:11:56;8.02;;;6.95;;
64738;SDS011;51175;51.186;0.276;2023-03-01T01:12:26;8.68;;;7.32;;
64738;SDS011;51175;51.186;0.276;2023-03-01T01:12:57;8.48;;;7.03;;
64738;SDS011;51175;51.186;0.276;2023-03-01T01:13:28;8.70;;;7.80;;
64738;SDS011;51175;51.186;0.276;2023-03-01T01:13:58;8.63;;;7.75;;
64738;SDS011;51175;51.186;0.276;2023-03-01T01:14:29;9.05;;;7.38;;
64738;SDS011;51175;51.186;0.276;2023-03-01T01:14:59;8.85;;;7.95;;
64738;SDS011;51175;51.186;0.276;2023-03-01T01:15:33;8.18;;;7.28;;
64738;SDS011;51175;51.186;0.276;2023-03-01T01:16:04;7.95;;;7.10;;
64738;SDS011;51175;51.186;0.276;2023-03-01T01:16:35;8.82;;;7.65;;
64738;SDS011;51175;51.186;0.276;2023-03-01T01:17:06;9.05;;;7.10;;
64738;SDS011;51175;51.186;0.276;2023-03-01T01:17:36;8.93;;;7.28;;
64738;SDS011;51175;51.186;0.276;2023-03-01T01:18:07;8.20;;;7.28;;
64738;SDS011;51175;51.186;0.276;2023-03-01T01:18:37;9.07;;;7.68;;
64738;SDS011;51175;51.186;0.276;2023-03-01T01:19:09;8.13;;;7.32;;
64738;SDS011;51175;51.186;0.276;2023-03-01T01:19:40;8.40;;;7.53;;
64738;SDS011;51175;51.186;0.276;2023-03-01T01:20:11;7.85;;;6.97;;
64738;SDS011;51175;51.186;0.276;2023-03-01T01:20:42;8.52;;;7.72;;
64738;SDS011;51175;51.186;0.276;2023-03-01T01:21:13;9.13;;;7.45;;
64738;SDS011;51175;51.186;0.276;2023-03-01T01:21:45;8.02;;;7.22;;
64738;SDS011;51175;51.186;0.276;2023-03-01T01:22:16;9.15;;;8.02;;
64738;SDS011;51175;51.186;0.276;2023-03-01T01:22:47;8.63;;;7.07;;
64738;SDS011;51175;51.186;0.276;2023-03-01T01:23:17;8.88;;;7.68;;
64738;SDS011;51175;51.186;0.276;2023-03-01T01:23:47;8.23;;;7.35;;
64738;SDS011;51175;51.186;0.276;2023-03-01T01:24:18;9.88;;;8.13;;
64738;SDS011;51175;51.186;0.276;2023-03-01T01:24:49;8.18;;;7.05;;
64738;SDS011;51175;51.186;0.276;2023-03-01T01:25:19;9.90;;;7.75;;
64738;SDS011;51175;51.186;0.276;2023-03-01T01:25:50;8.35;;;6.93;;
64738;SDS011;51175;51.186;0.276;2023-03-01T01:26:22;7.97;;;7.15;;
64738;SDS011;51175;51.186;0.276;2023-03-01T01:26:52;9.23;;;7.20;;
64738;SDS011;51175;51.186;0.276;2023-03-01T01:27:23;8.77;;;7.32;;
64738;SDS011;51175;51.186;0.276;2023-03-01T01:27:53;8.90;;;7.90;;
64738;SDS011;51175;51.186;0.276;2023-03-01T01:28:24;9.15;;;7.85;;
64738;SDS011;51175;51.186;0.276;2023-03-01T01:28:54;8.35;;;7.35;;
64738;SDS011;51175;51.186;0.276;2023-03-01T01:29:25;7.82;;;7.03;;
64738;SDS011;51175;51.186;0.276;2023-03-01T01:29:55;7.68;;;6.97;;
64738;SDS011;51175;51.186;0.276;2023-03-01T01:30:25;10.35;;;7.05;;
64738;SDS011;51175;51.186;0.276;2023-03-01T01:30:56;9.20;;;7.82;;
64738;SDS011;51175;51.186;0.276;2023-03-01T01:31:27;7.65;;;6.78;;
64738;SDS011;51175;51.186;0.276;2023-03-01T01:31:58;10.90;;;8.02;;
64738;SDS011;51175;51.186;0.276;2023-03-01T01:32:28;9.13;;;8.23;;
64738;SDS011;51175;51.186;0.276;2023-03-01T01:32:59;8.43;;;7.60;;
64738;SDS011;51175;51.186;0.276;2023-03-01T01:33:29;11.45;;;8.30;;
64738;SDS011;51175;51.186;0.276;2023-03-01T01:34:00;8.95;;;7.97;;
64738;SDS011;51175;51.186;0.276;2023-03-01T01:34:32;8.55;;;7.57;;
64738;SDS011;51175;51.186;0.276;2023-03-01T01:35:03;8.80;;;7.38;;
64738;SDS011;51175;51.186;0.276;2023-03-01T01:35:33;9.43;;;8.05;;
64738;SDS011;51175;51.186;0.276;2023-03-01T01:36:04;8.00;;;7.20;;
64738;SDS011;51175;51.186;0.276;2023-03-01T01:36:36;9.23;;;8.23;;
64738;SDS011;51175;51.186;0.276;2023-03-01T01:37:06;8.57;;;7.63;;
64738;SDS011;51175;51.186;0.276;2023-03-01T01:37:37;8.45;;;7.65;;
64738;SDS011;51175;51.186;0.276;2023-03-01T01:38:08;8.63;;;7.60;;
64738;SDS011;51175;51.186;0.276;2023-03-01T01:38:38;7.93;;;7.13;;
64738;SDS011;51175;51.186;0.276;2023-03-01T01:39:09;8.52;;;7.68;;
64738;SDS011;51175;51.186;0.276;2023-03-01T01:39:42;8.13;;;7.32;;
64738;SDS011;51175;51.186;0.276;2023-03-01T01:40:13;9.00;;;8.10;;
64738;SDS011;51175;51.186;0.276;2023-03-01T01:40:47;8.32;;;7.32;;
64738;SDS011;51175;51.186;0.276;2023-03-01T01:41:19;9.50;;;8.02;;
64738;SDS011;51175;51.186;0.276;2023-03-01T01:41:50;7.65;;;6.85;;
64738;SDS011;51175;51.186;0.276;2023-03-01T01:42:21;9.20;;;8.27;;
64738;SDS011;51175;51.186;0.276;2023-03-01T01:42:51;8.00;;;7.20;;
64738;SDS011;51175;51.186;0.276;2023-03-01T01:45:15;8.48;;;7.57;;
64738;SDS011;51175;51.186;0.276;2023-03-01T01:46:19;9.57;;;7.60;;
64738;SDS011;51175;51.186;0.276;2023-03-01T01:47:34;9.35;;;7.95;;
64738;SDS011;51175;51.186;0.276;2023-03-01T01:48:06;8.13;;;7.32;;
64738;SDS011;51175;51.186;0.276;2023-03-01T01:49:02;9.00;;;7.82;;
64738;SDS011;51175;51.186;0.276;2023-03-01T01:49:36;9.10;;;8.20;;
64738;SDS011;51175;51.186;0.276;2023-03-01T01:50:11;10.45;;;8.52;;
64738;SDS011;51175;51.186;0.276;2023-03-01T01:50:55;9.20;;;8.15;;
64738;SDS011;51175;51.186;0.276;2023-03-01T01:51:30;9.13;;;7.30;;
64738;SDS011;51175;51.186;0.276;2023-03-01T01:52:22;10.00;;;7.32;;
64738;SDS011;51175;51.186;0.276;2023-03-01T01:52:55;8.18;;;7.38;;
64738;SDS011;51175;51.186;0.276;2023-03-01T01:53:26;9.23;;;8.32;;
64738;SDS011;51175;51.186;0.276;2023-03-01T01:53:58;9.57;;;8.38;;
64738;SDS011;51175;51.186;0.276;2023-03-01T01:54:37;10.50;;;7.72;;
64738;SDS011;51175;51.186;0.276;2023-03-01T01:55:17;9.68;;;7.57;;
64738;SDS011;51175;51.186;0.276;2023-03-01T01:55:54;9.85;;;8.23;;
64738;SDS011;51175;51.186;0.276;2023-03-01T01:56:27;8.52;;;7.60;;
64738;SDS011;51175;51.186;0.276;2023-03-01T01:57:00;9.25;;;8.23;;
64738;SDS011;51175;51.186;0.276;2023-03-01T01:57:36;10.10;;;8.52;;
64738;SDS011;51175;51.186;0.276;2023-03-01T01:58:09;11.65;;;8.23;;
64738;SDS011;51175;51.186;0.276;2023-03-01T01:58:43;9.25;;;8.35;;
64738;SDS011;51175;51.186;0.276;2023-03-01T01:59:15;8.30;;;7.50;;
64738;SDS011;51175;51.186;0.276;2023-03-01T01:59:47;9.65;;;7.90;;
64738;SDS011;51175;51.186;0.276;2023-03-01T02:00:24;8.85;;;7.95;;
64738;SDS011;51175;51.186;0.276;2023-03-01T02:00:57;9.13;;;8.20;;
64738;SDS011;51175;51.186;0.276;2023-03-01T02:01:27;9.60;;;7.97;;
64738;SDS011;51175;51.186;0.276;2023-03-01T02:01:59;9.60;;;8.60;;
64738;SDS011;51175;51.186;0.276;2023-03-01T02:02:32;9.32;;;8.38;;
64738;SDS011;51175;51.186;0.276;2023-03-01T02:03:03;10.10;;;8.55;;
64738;SDS011;51175;51.186;0.276;2023-03-01T02:03:38;10.63;;;7.82;;
64738;SDS011;51175;51.186;0.276;2023-03-01T02:04:12;9.82;;;8.20;;
64738;SDS011;51175;51.186;0.276;2023-03-01T02:04:42;8.75;;;7.85;;
64738;SDS011;51175;51.186;0.276;2023-03-01T02:06:44;8.10;;;7.30;;
64738;SDS011;51175;51.186;0.276;2023-03-01T02:07:21;8.18;;;7.38;;
64738;SDS011;51175;51.186;0.276;2023-03-01T02:07:53;9.18;;;8.20;;
64738;SDS011;51175;51.186;0.276;2023-03-01T02:08:26;9.60;;;8.30;;
64738;SDS011;51175;51.186;0.276;2023-03-01T02:09:02;9.98;;;8.45;;
64738;SDS011;51175;51.186;0.276;2023-03-01T02:09:45;8.95;;;7.80;;
64738;SDS011;51175;51.186;0.276;2023-03-01T02:10:17;10.07;;;8.23;;
64738;SDS011;51175;51.186;0.276;2023-03-01T02:10:48;9.73;;;8.75;;
64738;SDS011;51175;51.186;0.276;2023-03-01T02:11:20;10.07;;;8.65;;
64738;SDS011;51175;51.186;0.276;2023-03-01T02:11:51;10.75;;;8.50;;
64738;SDS011;51175;51.186;0.276;2023-03-01T02:12:23;12.65;;;9.48;;
64738;SDS011;51175;51.186;0.276;2023-03-01T02:12:54;9.68;;;8.65;;
64738;SDS011;51175;51.186;0.276;2023-03-01T02:13:26;12.13;;;9.23;;
64738;SDS011;51175;51.186;0.276;2023-03-01T02:13:57;9.23;;;8.20;;
64738;SDS011;51175;51.186;0.276;2023-03-01T02:14:28;9.77;;;8.77;;
64738;SDS011;51175;51.186;0.276;2023-03-01T02:14:58;10.95;;;8.95;;
64738;SDS011;51175;51.186;0.276;2023-03-01T02:15:31;8.63;;;7.55;;
64738;SDS011;51175;51.186;0.276;2023-03-01T02:16:13;9.85;;;8.35;;
64738;SDS011;51175;51.186;0.276;2023-03-01T02:16:45;9.40;;;8.13;;
64738;SDS011;51175;51.186;0.276;2023-03-01T02:17:16;9.27;;;8.27;;
64738;SDS011;51175;51.186;0.276;2023-03-01T02:17:48;11.45;;;9.05;;
64738;SDS011;51175;51.186;0.276;2023-03-01T02:18:20;10.93;;;9.15;;
64738;SDS011;51175;51.186;0.276;2023-03-01T02:18:52;9.65;;;8.63;;
64738;SDS011;51175;51.186;0.276;2023-03-01T02:19:27;9.88;;;8.88;;
64738;SDS011;51175;51.186;0.276;2023-03-01T02:22:06;9.93;;;8.57;;
64738;SDS011;51175;51.186;0.276;2023-03-01T02:22:43;9.90;;;8.00;;
64738;SDS011;51175;51.186;0.276;2023-03-01T02:23:15;10.70;;;9.43;;
64738;SDS011;51175;51.186;0.276;2023-03-01T02:23:45;10.52;;;9.18;;
64738;SDS011;51175;51.186;0.276;2023-03-01T02:24:20;10.82;;;9.05;;
64738;SDS011;51175;51.186;0.276;2023-03-01T02:27:09;9.98;;;8.75;;
64738;SDS011;51175;51.186;0.276;2023-03-01T02:27:46;10.38;;;8.65;;
64738;SDS011;51175;51.186;0.276;2023-03-01T02:28:22;10.27;;;9.23;;
64738;SDS011;51175;51.186;0.276;2023-03-01T02:28:54;11.70;;;9.57;;
64738;SDS011;51175;51.186;0.276;2023-03-01T02:29:25;9.48;;;8.48;;
64738;SDS011;51175;51.186;0.276;2023-03-01T02:29:56;9.63;;;8.63;;
64738;SDS011;51175;51.186;0.276;2023-03-01T02:30:27;9.93;;;8.93;;
64738;SDS011;51175;51.186;0.276;2023-03-01T02:30:58;10.40;;;8.70;;
64738;SDS011;51175;51.186;0.276;2023-03-01T02:31:47;10.00;;;8.82;;
64738;SDS011;51175;51.186;0.276;2023-03-01T02:32:19;10.10;;;9.00;;
64738;SDS011;51175;51.186;0.276;2023-03-01T02:32:55;10.98;;;8.90;;
64738;SDS011;51175;51.186;0.276;2023-03-01T02:33:33;11.50;;;9.00;;
64738;SDS011;51175;51.186;0.276;2023-03-01T02:34:06;10.00;;;9.00;;
64738;SDS011;51175;51.186;0.276;2023-03-01T02:34:38;10.55;;;9.55;;
64738;SDS011;51175;51.186;0.276;2023-03-01T02:35:10;11.45;;;10.15;;
64738;SDS011;51175;51.186;0.276;2023-03-01T02:35:44;9.13;;;8.23;;
64738;SDS011;51175;51.186;0.276;2023-03-01T02:36:17;11.18;;;9.48;;
64738;SDS011;51175;51.186;0.276;2023-03-01T02:37:00;11.25;;;9.00;;
64738;SDS011;51175;51.186;0.276;2023-03-01T02:37:34;10.18;;;8.98;;
64738;SDS011;51175;51.186;0.276;2023-03-01T02:38:06;9.30;;;8.38;;
64738;SDS011;51175;51.186;0.276;2023-03-01T02:38:39;11.27;;;9.82;;
64738;SDS011;51175;51.186;0.276;2023-03-01T02:39:14;10.23;;;9.20;;
64738;SDS011;51175;51.186;0.276;2023-03-01T02:39:49;9.48;;;8.55;;
64738;SDS011;51175;51.186;0.276;2023-03-01T02:40:30;10.70;;;9.60;;
64738;SDS011;51175;51.186;0.276;2023-03-01T02:41:04;11.13;;;10.00;;
64738;SDS011;51175;51.186;0.276;2023-03-01T02:41:38;9.65;;;8.75;;
64738;SDS011;51175;51.186;0.276;2023-03-01T02:42:12;10.38;;;9.20;;
64738;SDS011;51175;51.186;0.276;2023-03-01T02:42:52;11.23;;;10.07;;
64738;SDS011;51175;51.186;0.276;2023-03-01T02:43:26;10.23;;;9.13;;
64738;SDS011;51175;51.186;0.276;2023-03-01T02:44:01;10.23;;;9.13;;
64738;SDS011;51175;51.186;0.276;2023-03-01T02:44:33;10.23;;;9.13;;
64738;SDS011;51175;51.186;0.276;2023-03-01T02:45:03;10.30;;;9.15;;
64738;SDS011;51175;51.186;0.276;2023-03-01T02:45:34;10.57;;;8.80;;
64738;SDS011;51175;51.186;0.276;2023-03-01T02:46:08;10.52;;;9.40;;
64738;SDS011;51175;51.186;0.276;2023-03-01T02:46:47;10.88;;;9.77;;
64738;SDS011;51175;51.186;0.276;2023-03-01T02:47:19;10.20;;;9.20;;
64738;SDS011;51175;51.186;0.276;2023-03-01T02:47:49;10.73;;;9.63;;
64738;SDS011;51175;51.186;0.276;2023-03-01T02:48:20;11.10;;;9.98;;
64738;SDS011;51175;51.186;0.276;2023-03-01T02:48:52;10.25;;;9.25;;
64738;SDS011;51175;51.186;0.276;2023-03-01T02:49:55;11.80;;;9.15;;
64738;SDS011;51175;51.186;0.276;2023-03-01T02:51:11;10.50;;;9.50;;
64738;SDS011;51175;51.186;0.276;2023-03-01T02:52:46;9.60;;;8.60;;
64738;SDS011;51175;51.186;0.276;2023-03-01T02:53:39;14.15;;;9.57;;
64738;SDS011;51175;51.186;0.276;2023-03-01T02:55:08;11.82;;;10.07;;
64738;SDS011;51175;51.186;0.276;2023-03-01T02:55:44;10.68;;;9.65;;
64738;SDS011;51175;51.186;0.276;2023-03-01T02:56:15;9.93;;;8.93;;
64738;SDS011;51175;51.186;0.276;2023-03-01T02:56:45;9.75;;;8.80;;
64738;SDS011;51175;51.186;0.276;2023-03-01T02:57:20;12.43;;;9.65;;
64738;SDS011;51175;51.186;0.276;2023-03-01T02:57:53;10.10;;;9.10;;
64738;SDS011;51175;51.186;0.276;2023-03-01T02:58:24;10.95;;;9.88;;
64738;SDS011;51175;51.186;0.276;2023-03-01T02:58:55;11.35;;;9.52;;
64738;SDS011;51175;51.186;0.276;2023-03-01T02:59:31;10.98;;;9.65;;
64738;SDS011;51175;51.186;0.276;2023-03-01T03:00:09;10.15;;;8.57;;
64738;SDS011;51175;51.186;0.276;2023-03-01T03:00:49;11.90;;;9.88;;
64738;SDS011;51175;51.186;0.276;2023-03-01T03:01:20;10.48;;;9.35;;
64738;SDS011;51175;51.186;0.276;2023-03-01T03:01:51;10.88;;;9.57;;
64738;SDS011;51175;51.186;0.276;2023-03-01T03:02:22;10.48;;;8.93;;
64738;SDS011;51175;51.186;0.276;2023-03-01T03:03:06;10.20;;;8.70;;
64738;SDS011;51175;51.186;0.276;2023-03-01T03:03:37;11.50;;;9.43;;
64738;SDS011;51175;51.186;0.276;2023-03-01T03:04:09;10.70;;;9.45;;
64738;SDS011;51175;51.186;0.276;2023-03-01T03:04:41;10.57;;;9.15;;
64738;SDS011;51175;51.186;0.276;2023-03-01T03:05:13;11.50;;;10.00;;
64738;SDS011;51175;51.186;0.276;2023-03-01T03:05:46;10.63;;;9.57;;
64738;SDS011;51175;51.186;0.276;2023-03-01T03:06:18;9.95;;;8.95;;
64738;SDS011;51175;51.186;0.276;2023-03-01T03:06:50;11.52;;;9.75;;
64738;SDS011;51175;51.186;0.276;2023-03-01T03:07:21;10.02;;;9.00;;
64738;SDS011;51175;51.186;0.276;2023-03-01T03:07:51;10.70;;;9.57;;
64738;SDS011;51175;51.186;0.276;2023-03-01T03:08:22;10.95;;;9.85;;
64738;SDS011;51175;51.186;0.276;2023-03-01T03:08:53;9.38;;;8.38;;
64738;SDS011;51175;51.186;0.276;2023-03-01T03:09:24;10.55;;;9.45;;
64738;SDS011;51175;51.186;0.276;2023-03-01T03:09:54;12.77;;;9.10;;
64738;SDS011;51175;51.186;0.276;2023-03-01T03:10:26;11.20;;;9.82;;
64738;SDS011;51175;51.186;0.276;2023-03-01T03:10:58;10.45;;;9.05;;
64738;SDS011;51175;51.186;0.276;2023-03-01T03:11:28;9.98;;;8.98;;
64738;SDS011;51175;51.186;0.276;2023-03-01T03:11:59;10.35;;;9.27;;
64738;SDS011;51175;51.186;0.276;2023-03-01T03:12:29;10.57;;;9.38;;
64738;SDS011;51175;51.186;0.276;2023-03-01T03:13:01;11.70;;;9.38;;
64738;SDS011;51175;51.186;0.276;2023-03-01T03:13:33;10.43;;;9.35;;
64738;SDS011;51175;51.186;0.276;2023-03-01T03:14:04;11.52;;;9.23;;
64738;SDS011;51175;51.186;0.276;2023-03-01T03:14:35;11.27;;;9.48;;
64738;SDS011;51175;51.186;0.276;2023-03-01T03:15:06;10.70;;;9.60;;
64738;SDS011;51175;51.186;0.276;2023-03-01T03:15:39;10.40;;;9.35;;
64738;SDS011;51175;51.186;0.276;2023-03-01T03:16:10;10.32;;;9.27;;
64738;SDS011;51175;51.186;0.276;2023-03-01T03:16:41;9.93;;;8.93;;
64738;SDS011;51175;51.186;0.276;2023-03-01T03:17:14;10.32;;;9.32;;
64738;SDS011;51175;51.186;0.276;2023-03-01T03:17:45;10.05;;;9.05;;
64738;SDS011;51175;51.186;0.276;2023-03-01T03:18:15;9.95;;;8.70;;
64738;SDS011;51175;51.186;0.276;2023-03-01T03:18:46;10.63;;;9.52;;
64738;SDS011;51175;51.186;0.276;2023-03-01T03:19:18;9.77;;;8.75;;
64738;SDS011;51175;51.186;0.276;2023-03-01T03:19:49;11.00;;;9.15;;
64738;SDS011;51175;51.186;0.276;2023-03-01T03:20:20;8.93;;;8.00;;
64738;SDS011;51175;51.186;0.276;2023-03-01T03:20:54;9.90;;;8.85;;
64738;SDS011;51175;51.186;0.276;2023-03-01T03:21:24;10.40;;;9.25;;
64738;SDS011;51175;51.186;0.276;2023-03-01T03:21:54;9.20;;;8.30;;
64738;SDS011;51175;51.186;0.276;2023-03-01T03:22:25;10.00;;;8.95;;
64738;SDS011;51175;51.186;0.276;2023-03-01T03:22:58;11.73;;;9.15;;
64738;SDS011;51175;51.186;0.276;2023-03-01T03:23:29;10.30;;;9.23;;
64738;SDS011;51175;51.186;0.276;2023-03-01T03:23:59;10.68;;;9.65;;
64738;SDS011;51175;51.186;0.276;2023-03-01T03:24:30;10.98;;;9.48;;
64738;SDS011;51175;51.186;0.276;2023-03-01T03:25:07;9.80;;;8.82;;
64738;SDS011;51175;51.186;0.276;2023-03-01T03:25:41;9.32;;;8.35;;
64738;SDS011;51175;51.186;0.276;2023-03-01T03:26:12;10.30;;;8.90;;